sensor_id;sensor_type;location;lat;lon;timestamp;P1;durP1;ratioP1;P2;durP2;ratioP2
15114;SDS011;7658;51.456;7.622;2023-10-19T00:01:13;11.60;;;8.27;;
15114;SDS011;7658;51.456;7.622;2023-10-19T00:03:40;10.95;;;8.38;;
15114;SDS011;7658;51.456;7.622;2023-10-19T00:06:06;11.77;;;8.65;;
15114;SDS011;7658;51.456;7.622;2023-10-19T00:08:32;12.05;;;7.97;;
15114;SDS011;7658;51.456;7.622;2023-10-19T00:11:07;12.13;;;8.38;;
15114;SDS011;7658;51.456;7.622;2023-10-19T00:13:46;11.32;;;8.85;;
15114;SDS011;7658;51.456;7.622;2023-10-19T00:16:15;11.55;;;8.27;;
15114;SDS011;7658;51.456;7.622;2023-10-19T00:19:01;7.72;;;6.50;;
15114;SDS011;7658;51.456;7.622;2023-10-19T00:21:28;8.90;;;6.22;;
15114;SDS011;7658;51.456;7.622;2023-10-19T00:23:55;9.45;;;6.70;;
15114;SDS011;7658;51.456;7.622;2023-10-19T00:26:22;7.93;;;6.45;;
15114;SDS011;7658;51.456;7.622;2023-10-19T00:28:52;7.13;;;6.38;;
15114;SDS011;7658;51.456;7.622;2023-10-19T00:31:20;9.88;;;6.30;;
15114;SDS011;7658;51.456;7.622;2023-10-19T00:33:47;9.18;;;6.45;;
15114;SDS011;7658;51.456;7.622;2023-10-19T00:36:16;10.60;;;6.93;;
15114;SDS011;7658;51.456;7.622;2023-10-19T00:38:45;8.15;;;6.30;;
15114;SDS011;7658;51.456;7.622;2023-10-19T00:41:14;9.95;;;7.00;;
15114;SDS011;7658;51.456;7.622;2023-10-19T00:43:55;10.52;;;7.57;;
15114;SDS011;7658;51.456;7.622;2023-10-19T00:46:36;9.93;;;7.25;;
15114;SDS011;7658;51.456;7.622;2023-10-19T00:49:08;7.95;;;6.90;;
15114;SDS011;7658;51.456;7.622;2023-10-19T00:51:40;9.35;;;7.60;;
15114;SDS011;7658;51.456;7.622;2023-10-19T00:54:24;7.75;;;6.72;;
15114;SDS011;7658;51.456;7.622;2023-10-19T00:57:03;9.55;;;6.35;;
15114;SDS011;7658;51.456;7.622;2023-10-19T00:59:32;9.63;;;7.63;;
15114;SDS011;7658;51.456;7.622;2023-10-19T01:02:08;10.40;;;7.22;;
15114;SDS011;7658;51.456;7.622;2023-10-19T01:04:44;7.70;;;6.72;;
15114;SDS011;7658;51.456;7.622;2023-10-19T01:07:15;11.23;;;7.55;;
15114;SDS011;7658;51.456;7.622;2023-10-19T01:09:48;9.25;;;7.13;;
15114;SDS011;7658;51.456;7.622;2023-10-19T01:12:19;7.95;;;6.78;;
15114;SDS011;7658;51.456;7.622;2023-10-19T01:17:35;8.80;;;6.72;;
15114;SDS011;7658;51.456;7.622;2023-10-19T01:20:08;9.00;;;7.63;;
15114;SDS011;7658;51.456;7.622;2023-10-19T01:22:52;8.05;;;6.60;;
15114;SDS011;7658;51.456;7.622;2023-10-19T01:25:21;9.05;;;7.47;;
15114;SDS011;7658;51.456;7.622;2023-10-19T01:27:59;9.93;;;7.45;;
15114;SDS011;7658;51.456;7.622;2023-10-19T01:30:32;9.18;;;7.53;;
15114;SDS011;7658;51.456;7.622;2023-10-19T01:32:58;8.68;;;7.28;;
15114;SDS011;7658;51.456;7.622;2023-10-19T01:35:24;9.57;;;7.70;;
15114;SDS011;7658;51.456;7.622;2023-10-19T01:37:52;10.55;;;7.47;;
15114;SDS011;7658;51.456;7.622;2023-10-19T01:40:17;10.60;;;8.40;;
15114;SDS011;7658;51.456;7.622;2023-10-19T01:42:45;10.38;;;8.15;;
15114;SDS011;7658;51.456;7.622;2023-10-19T01:45:12;14.55;;;9.27;;
15114;SDS011;7658;51.456;7.622;2023-10-19T01:47:37;12.90;;;9.95;;
15114;SDS011;7658;51.456;7.622;2023-10-19T01:50:06;12.85;;;10.18;;
15114;SDS011;7658;51.456;7.622;2023-10-19T01:52:32;13.05;;;10.45;;
15114;SDS011;7658;51.456;7.622;2023-10-19T01:54:58;14.30;;;10.75;;
15114;SDS011;7658;51.456;7.622;2023-10-19T01:57:32;17.83;;;11.40;;
15114;SDS011;7658;51.456;7.622;2023-10-19T01:59:59;18.88;;;12.43;;
15114;SDS011;7658;51.456;7.622;2023-10-19T02:02:34;15.30;;;11.43;;
15114;SDS011;7658;51.456;7.622;2023-10-19T02:05:00;14.50;;;11.43;;
15114;SDS011;7658;51.456;7.622;2023-10-19T02:07:29;16.27;;;12.10;;
15114;SDS011;7658;51.456;7.622;2023-10-19T02:09:55;17.27;;;11.88;;
15114;SDS011;7658;51.456;7.622;2023-10-19T02:12:21;14.55;;;11.52;;
15114;SDS011;7658;51.456;7.622;2023-10-19T02:14:47;17.48;;;11.48;;
15114;SDS011;7658;51.456;7.622;2023-10-19T02:17:13;16.63;;;11.52;;
15114;SDS011;7658;51.456;7.622;2023-10-19T02:19:40;14.50;;;11.40;;
15114;SDS011;7658;51.456;7.622;2023-10-19T02:22:05;19.40;;;11.13;;
15114;SDS011;7658;51.456;7.622;2023-10-19T02:24:37;15.48;;;11.23;;
15114;SDS011;7658;51.456;7.622;2023-10-19T02:27:04;14.18;;;11.65;;
15114;SDS011;7658;51.456;7.622;2023-10-19T02:29:29;15.48;;;11.52;;
15114;SDS011;7658;51.456;7.622;2023-10-19T02:31:56;17.85;;;11.88;;
15114;SDS011;7658;51.456;7.622;2023-10-19T02:34:25;14.27;;;10.98;;
15114;SDS011;7658;51.456;7.622;2023-10-19T02:36:50;15.52;;;11.75;;
15114;SDS011;7658;51.456;7.622;2023-10-19T02:39:16;16.63;;;11.77;;
15114;SDS011;7658;51.456;7.622;2023-10-19T02:41:43;16.85;;;12.40;;
15114;SDS011;7658;51.456;7.622;2023-10-19T02:44:16;15.23;;;11.00;;
15114;SDS011;7658;51.456;7.622;2023-10-19T02:46:43;15.50;;;11.70;;
15114;SDS011;7658;51.456;7.622;2023-10-19T02:49:11;16.88;;;12.15;;
15114;SDS011;7658;51.456;7.622;2023-10-19T02:51:43;16.50;;;12.20;;
15114;SDS011;7658;51.456;7.622;2023-10-19T02:54:10;14.23;;;11.48;;
15114;SDS011;7658;51.456;7.622;2023-10-19T02:56:55;15.65;;;10.93;;
15114;SDS011;7658;51.456;7.622;2023-10-19T02:59:23;16.40;;;12.65;;
15114;SDS011;7658;51.456;7.622;2023-10-19T03:01:51;19.05;;;12.02;;
15114;SDS011;7658;51.456;7.622;2023-10-19T03:04:19;17.70;;;11.88;;
15114;SDS011;7658;51.456;7.622;2023-10-19T03:06:45;17.95;;;11.80;;
15114;SDS011;7658;51.456;7.622;2023-10-19T03:09:11;14.07;;;10.45;;
15114;SDS011;7658;51.456;7.622;2023-10-19T03:11:51;18.17;;;11.90;;
15114;SDS011;7658;51.456;7.622;2023-10-19T03:14:18;16.85;;;11.60;;
15114;SDS011;7658;51.456;7.622;2023-10-19T03:16:44;14.70;;;10.85;;
15114;SDS011;7658;51.456;7.622;2023-10-19T03:19:10;17.10;;;11.27;;
15114;SDS011;7658;51.456;7.622;2023-10-19T03:21:38;13.20;;;9.90;;
15114;SDS011;7658;51.456;7.622;2023-10-19T03:24:14;14.82;;;10.00;;
15114;SDS011;7658;51.456;7.622;2023-10-19T03:26:51;16.17;;;10.63;;
15114;SDS011;7658;51.456;7.622;2023-10-19T03:29:19;13.20;;;10.23;;
15114;SDS011;7658;51.456;7.622;2023-10-19T03:31:53;12.50;;;9.80;;
15114;SDS011;7658;51.456;7.622;2023-10-19T03:34:18;13.20;;;9.38;;
15114;SDS011;7658;51.456;7.622;2023-10-19T03:36:48;9.88;;;8.23;;
15114;SDS011;7658;51.456;7.622;2023-10-19T03:39:15;14.23;;;9.18;;
15114;SDS011;7658;51.456;7.622;2023-10-19T03:41:43;13.63;;;9.35;;
15114;SDS011;7658;51.456;7.622;2023-10-19T03:44:13;10.43;;;8.50;;
15114;SDS011;7658;51.456;7.622;2023-10-19T03:46:49;13.40;;;8.25;;
15114;SDS011;7658;51.456;7.622;2023-10-19T03:49:19;9.85;;;8.20;;
15114;SDS011;7658;51.456;7.622;2023-10-19T03:51:46;10.35;;;7.72;;
15114;SDS011;7658;51.456;7.622;2023-10-19T03:54:25;10.98;;;8.07;;
15114;SDS011;7658;51.456;7.622;2023-10-19T03:56:52;11.35;;;8.05;;
15114;SDS011;7658;51.456;7.622;2023-10-19T03:59:19;11.43;;;8.25;;
15114;SDS011;7658;51.456;7.622;2023-10-19T04:01:59;11.15;;;8.05;;
15114;SDS011;7658;51.456;7.622;2023-10-19T04:04:25;11.77;;;7.55;;
15114;SDS011;7658;51.456;7.622;2023-10-19T04:06:54;16.73;;;7.95;;
15114;SDS011;7658;51.456;7.622;2023-10-19T04:09:24;10.48;;;7.47;;
15114;SDS011;7658;51.456;7.622;2023-10-19T04:11:57;14.23;;;7.65;;
15114;SDS011;7658;51.456;7.622;2023-10-19T04:14:23;10.45;;;7.35;;
15114;SDS011;7658;51.456;7.622;2023-10-19T04:16:48;9.98;;;7.68;;
15114;SDS011;7658;51.456;7.622;2023-10-19T04:19:15;10.55;;;7.82;;
15114;SDS011;7658;51.456;7.622;2023-10-19T04:21:41;11.27;;;7.65;;
15114;SDS011;7658;51.456;7.622;2023-10-19T04:24:11;9.85;;;7.63;;
15114;SDS011;7658;51.456;7.622;2023-10-19T04:26:38;11.93;;;8.88;;
15114;SDS011;7658;51.456;7.622;2023-10-19T04:29:05;12.73;;;8.23;;
15114;SDS011;7658;51.456;7.622;2023-10-19T04:31:42;10.40;;;7.80;;
15114;SDS011;7658;51.456;7.622;2023-10-19T04:34:17;7.95;;;6.63;;
15114;SDS011;7658;51.456;7.622;2023-10-19T04:36:46;11.98;;;7.53;;
15114;SDS011;7658;51.456;7.622;2023-10-19T04:39:12;7.57;;;6.72;;
15114;SDS011;7658;51.456;7.622;2023-10-19T04:41:41;9.40;;;7.72;;
15114;SDS011;7658;51.456;7.622;2023-10-19T04:44:09;9.05;;;8.02;;
15114;SDS011;7658;51.456;7.622;2023-10-19T04:46:35;10.57;;;7.50;;
15114;SDS011;7658;51.456;7.622;2023-10-19T04:49:02;8.30;;;7.40;;
15114;SDS011;7658;51.456;7.622;2023-10-19T04:51:30;9.60;;;7.03;;
15114;SDS011;7658;51.456;7.622;2023-10-19T04:53:56;12.68;;;7.60;;
15114;SDS011;7658;51.456;7.622;2023-10-19T04:56:22;9.68;;;7.13;;
15114;SDS011;7658;51.456;7.622;2023-10-19T04:58:48;9.85;;;6.97;;
15114;SDS011;7658;51.456;7.622;2023-10-19T05:01:14;10.77;;;7.38;;
15114;SDS011;7658;51.456;7.622;2023-10-19T05:03:40;9.55;;;6.88;;
15114;SDS011;7658;51.456;7.622;2023-10-19T05:06:06;6.85;;;5.90;;
15114;SDS011;7658;51.456;7.622;2023-10-19T05:08:34;10.70;;;7.13;;
15114;SDS011;7658;51.456;7.622;2023-10-19T05:11:01;8.80;;;6.72;;
15114;SDS011;7658;51.456;7.622;2023-10-19T05:13:28;9.75;;;7.80;;
15114;SDS011;7658;51.456;7.622;2023-10-19T05:15:55;8.15;;;6.95;;
15114;SDS011;7658;51.456;7.622;2023-10-19T05:18:21;9.45;;;6.47;;
15114;SDS011;7658;51.456;7.622;2023-10-19T05:20:48;13.18;;;7.65;;
15114;SDS011;7658;51.456;7.622;2023-10-19T05:23:15;9.15;;;7.20;;
15114;SDS011;7658;51.456;7.622;2023-10-19T05:25:41;7.78;;;6.43;;
15114;SDS011;7658;51.456;7.622;2023-10-19T05:28:07;9.05;;;6.28;;
15114;SDS011;7658;51.456;7.622;2023-10-19T05:30:33;9.55;;;6.50;;
15114;SDS011;7658;51.456;7.622;2023-10-19T05:33:00;8.70;;;7.00;;
15114;SDS011;7658;51.456;7.622;2023-10-19T05:35:31;9.32;;;7.40;;
15114;SDS011;7658;51.456;7.622;2023-10-19T05:38:00;13.20;;;7.80;;
15114;SDS011;7658;51.456;7.622;2023-10-19T05:40:26;12.10;;;6.78;;
15114;SDS011;7658;51.456;7.622;2023-10-19T05:42:57;9.77;;;6.97;;
15114;SDS011;7658;51.456;7.622;2023-10-19T05:45:25;7.80;;;6.95;;
15114;SDS011;7658;51.456;7.622;2023-10-19T05:47:53;7.10;;;6.15;;
15114;SDS011;7658;51.456;7.622;2023-10-19T05:50:20;10.27;;;7.25;;
15114;SDS011;7658;51.456;7.622;2023-10-19T05:52:46;8.25;;;6.90;;
15114;SDS011;7658;51.456;7.622;2023-10-19T05:55:13;8.70;;;6.97;;
15114;SDS011;7658;51.456;7.622;2023-10-19T05:57:40;7.40;;;6.13;;
15114;SDS011;7658;51.456;7.622;2023-10-19T06:00:09;14.10;;;7.32;;
15114;SDS011;7658;51.456;7.622;2023-10-19T06:02:44;9.05;;;6.68;;
15114;SDS011;7658;51.456;7.622;2023-10-19T06:05:12;10.20;;;6.65;;
15114;SDS011;7658;51.456;7.622;2023-10-19T06:07:40;6.15;;;5.55;;
15114;SDS011;7658;51.456;7.622;2023-10-19T06:10:14;10.65;;;6.40;;
15114;SDS011;7658;51.456;7.622;2023-10-19T06:12:45;7.82;;;6.13;;
15114;SDS011;7658;51.456;7.622;2023-10-19T06:15:16;8.40;;;6.53;;
15114;SDS011;7658;51.456;7.622;2023-10-19T06:17:45;10.45;;;6.63;;
15114;SDS011;7658;51.456;7.622;2023-10-19T06:20:13;8.93;;;6.47;;
15114;SDS011;7658;51.456;7.622;2023-10-19T06:22:49;6.43;;;5.60;;
15114;SDS011;7658;51.456;7.622;2023-10-19T06:25:21;8.88;;;6.07;;
15114;SDS011;7658;51.456;7.622;2023-10-19T06:27:48;8.20;;;6.30;;
15114;SDS011;7658;51.456;7.622;2023-10-19T06:30:15;11.45;;;6.40;;
15114;SDS011;7658;51.456;7.622;2023-10-19T06:32:56;10.90;;;5.85;;
15114;SDS011;7658;51.456;7.622;2023-10-19T06:35:27;11.50;;;5.72;;
15114;SDS011;7658;51.456;7.622;2023-10-19T06:37:54;9.23;;;6.15;;
15114;SDS011;7658;51.456;7.622;2023-10-19T06:40:24;7.82;;;6.13;;
15114;SDS011;7658;51.456;7.622;2023-10-19T06:42:51;8.50;;;6.03;;
15114;SDS011;7658;51.456;7.622;2023-10-19T06:45:21;7.95;;;5.95;;
15114;SDS011;7658;51.456;7.622;2023-10-19T06:47:47;6.32;;;5.55;;
15114;SDS011;7658;51.456;7.622;2023-10-19T06:50:15;7.35;;;6.35;;
15114;SDS011;7658;51.456;7.622;2023-10-19T06:52:43;8.30;;;6.32;;
15114;SDS011;7658;51.456;7.622;2023-10-19T06:55:10;10.32;;;6.43;;
15114;SDS011;7658;51.456;7.622;2023-10-19T06:57:42;8.27;;;6.90;;
15114;SDS011;7658;51.456;7.622;2023-10-19T07:00:12;8.90;;;6.40;;
15114;SDS011;7658;51.456;7.622;2023-10-19T07:02:40;8.95;;;6.78;;
15114;SDS011;7658;51.456;7.622;2023-10-19T07:05:07;7.53;;;6.45;;
15114;SDS011;7658;51.456;7.622;2023-10-19T07:07:43;8.43;;;6.53;;
15114;SDS011;7658;51.456;7.622;2023-10-19T07:10:10;9.90;;;7.38;;
15114;SDS011;7658;51.456;7.622;2023-10-19T07:12:39;9.45;;;7.95;;
15114;SDS011;7658;51.456;7.622;2023-10-19T07:15:09;9.90;;;8.15;;
15114;SDS011;7658;51.456;7.622;2023-10-19T07:17:44;13.30;;;9.18;;
15114;SDS011;7658;51.456;7.622;2023-10-19T07:20:15;14.05;;;9.32;;
15114;SDS011;7658;51.456;7.622;2023-10-19T07:23:00;11.70;;;8.27;;
15114;SDS011;7658;51.456;7.622;2023-10-19T07:25:47;14.18;;;9.45;;
15114;SDS011;7658;51.456;7.622;2023-10-19T07:28:18;13.48;;;9.40;;
15114;SDS011;7658;51.456;7.622;2023-10-19T07:30:44;11.98;;;8.60;;
15114;SDS011;7658;51.456;7.622;2023-10-19T07:33:16;14.38;;;8.48;;
15114;SDS011;7658;51.456;7.622;2023-10-19T07:35:49;13.13;;;8.50;;
15114;SDS011;7658;51.456;7.622;2023-10-19T07:38:41;12.02;;;8.32;;
15114;SDS011;7658;51.456;7.622;2023-10-19T07:41:07;8.07;;;7.28;;
15114;SDS011;7658;51.456;7.622;2023-10-19T07:43:34;9.05;;;7.38;;
15114;SDS011;7658;51.456;7.622;2023-10-19T07:46:01;10.65;;;6.53;;
15114;SDS011;7658;51.456;7.622;2023-10-19T07:48:26;9.32;;;6.80;;
15114;SDS011;7658;51.456;7.622;2023-10-19T07:50:52;7.45;;;5.90;;
15114;SDS011;7658;51.456;7.622;2023-10-19T07:53:18;8.40;;;7.13;;
15114;SDS011;7658;51.456;7.622;2023-10-19T07:55:44;7.82;;;7.03;;
15114;SDS011;7658;51.456;7.622;2023-10-19T07:58:10;7.38;;;6.50;;
15114;SDS011;7658;51.456;7.622;2023-10-19T08:00:37;8.55;;;6.88;;
15114;SDS011;7658;51.456;7.622;2023-10-19T08:03:04;8.32;;;6.97;;
15114;SDS011;7658;51.456;7.622;2023-10-19T08:05:32;10.13;;;7.07;;
15114;SDS011;7658;51.456;7.622;2023-10-19T08:07:59;11.27;;;7.82;;
15114;SDS011;7658;51.456;7.622;2023-10-19T08:10:26;11.27;;;7.28;;
15114;SDS011;7658;51.456;7.622;2023-10-19T08:12:55;9.23;;;7.38;;
15114;SDS011;7658;51.456;7.622;2023-10-19T08:15:22;12.90;;;8.00;;
15114;SDS011;7658;51.456;7.622;2023-10-19T08:17:49;8.48;;;7.15;;
15114;SDS011;7658;51.456;7.622;2023-10-19T08:20:18;10.00;;;8.02;;
15114;SDS011;7658;51.456;7.622;2023-10-19T08:22:57;11.27;;;8.30;;
15114;SDS011;7658;51.456;7.622;2023-10-19T08:25:26;12.43;;;8.73;;
15114;SDS011;7658;51.456;7.622;2023-10-19T08:27:53;11.85;;;9.25;;
15114;SDS011;7658;51.456;7.622;2023-10-19T08:30:23;11.32;;;9.60;;
15114;SDS011;7658;51.456;7.622;2023-10-19T08:32:50;13.18;;;10.60;;
15114;SDS011;7658;51.456;7.622;2023-10-19T08:35:21;14.27;;;10.82;;
15114;SDS011;7658;51.456;7.622;2023-10-19T08:37:51;11.60;;;9.77;;
15114;SDS011;7658;51.456;7.622;2023-10-19T08:40:19;12.13;;;9.52;;
15114;SDS011;7658;51.456;7.622;2023-10-19T08:42:47;11.27;;;9.57;;
15114;SDS011;7658;51.456;7.622;2023-10-19T08:45:13;14.45;;;9.38;;
15114;SDS011;7658;51.456;7.622;2023-10-19T08:50:21;13.27;;;11.05;;
15114;SDS011;7658;51.456;7.622;2023-10-19T08:52:56;12.35;;;10.07;;
15114;SDS011;7658;51.456;7.622;2023-10-19T08:55:24;12.90;;;10.13;;
15114;SDS011;7658;51.456;7.622;2023-10-19T08:57:51;10.82;;;8.50;;
15114;SDS011;7658;51.456;7.622;2023-10-19T09:00:18;11.23;;;8.82;;
15114;SDS011;7658;51.456;7.622;2023-10-19T09:02:45;12.43;;;7.50;;
15114;SDS011;7658;51.456;7.622;2023-10-19T09:05:12;10.30;;;7.68;;
15114;SDS011;7658;51.456;7.622;2023-10-19T09:07:47;9.90;;;7.22;;
15114;SDS011;7658;51.456;7.622;2023-10-19T09:10:24;8.90;;;6.95;;
15114;SDS011;7658;51.456;7.622;2023-10-19T09:13:04;8.80;;;6.70;;
15114;SDS011;7658;51.456;7.622;2023-10-19T09:15:36;10.50;;;6.57;;
15114;SDS011;7658;51.456;7.622;2023-10-19T09:18:16;12.02;;;6.10;;
15114;SDS011;7658;51.456;7.622;2023-10-19T09:20:44;12.15;;;6.78;;
15114;SDS011;7658;51.456;7.622;2023-10-19T09:23:27;11.50;;;6.25;;
15114;SDS011;7658;51.456;7.622;2023-10-19T09:25:57;11.40;;;5.90;;
15114;SDS011;7658;51.456;7.622;2023-10-19T09:28:37;9.02;;;6.00;;
15114;SDS011;7658;51.456;7.622;2023-10-19T09:31:04;13.68;;;6.38;;
15114;SDS011;7658;51.456;7.622;2023-10-19T09:33:34;7.75;;;5.10;;
15114;SDS011;7658;51.456;7.622;2023-10-19T09:36:02;7.68;;;5.72;;
15114;SDS011;7658;51.456;7.622;2023-10-19T09:38:48;7.45;;;5.32;;
15114;SDS011;7658;51.456;7.622;2023-10-19T09:41:19;12.75;;;5.88;;
15114;SDS011;7658;51.456;7.622;2023-10-19T09:43:47;8.18;;;5.53;;
15114;SDS011;7658;51.456;7.622;2023-10-19T09:46:22;11.65;;;5.50;;
15114;SDS011;7658;51.456;7.622;2023-10-19T09:48:51;8.98;;;5.53;;
15114;SDS011;7658;51.456;7.622;2023-10-19T09:51:18;9.32;;;5.18;;
15114;SDS011;7658;51.456;7.622;2023-10-19T09:54:04;10.38;;;5.78;;
15114;SDS011;7658;51.456;7.622;2023-10-19T09:56:42;8.48;;;5.35;;
15114;SDS011;7658;51.456;7.622;2023-10-19T09:59:26;9.05;;;5.45;;
15114;SDS011;7658;51.456;7.622;2023-10-19T10:02:07;29.77;;;5.75;;
15114;SDS011;7658;51.456;7.622;2023-10-19T10:04:36;8.75;;;4.43;;
15114;SDS011;7658;51.456;7.622;2023-10-19T10:07:04;8.68;;;4.85;;
15114;SDS011;7658;51.456;7.622;2023-10-19T10:09:38;7.20;;;5.05;;
15114;SDS011;7658;51.456;7.622;2023-10-19T10:12:18;9.57;;;4.85;;
15114;SDS011;7658;51.456;7.622;2023-10-19T10:14:56;10.93;;;4.90;;
15114;SDS011;7658;51.456;7.622;2023-10-19T10:17:37;11.15;;;4.95;;
15114;SDS011;7658;51.456;7.622;2023-10-19T10:22:40;8.00;;;4.72;;
15114;SDS011;7658;51.456;7.622;2023-10-19T10:25:07;7.95;;;4.88;;
15114;SDS011;7658;51.456;7.622;2023-10-19T10:27:50;12.35;;;4.47;;
15114;SDS011;7658;51.456;7.622;2023-10-19T10:30:17;8.50;;;4.20;;
15114;SDS011;7658;51.456;7.622;2023-10-19T10:32:46;7.10;;;3.88;;
15114;SDS011;7658;51.456;7.622;2023-10-19T10:38:05;10.80;;;4.28;;
15114;SDS011;7658;51.456;7.622;2023-10-19T10:40:44;15.60;;;5.28;;
15114;SDS011;7658;51.456;7.622;2023-10-19T10:43:12;10.88;;;4.18;;
15114;SDS011;7658;51.456;7.622;2023-10-19T10:45:39;9.70;;;3.67;;
15114;SDS011;7658;51.456;7.622;2023-10-19T10:48:16;6.78;;;3.83;;
15114;SDS011;7658;51.456;7.622;2023-10-19T10:50:47;5.68;;;3.30;;
15114;SDS011;7658;51.456;7.622;2023-10-19T10:53:14;11.40;;;4.07;;
15114;SDS011;7658;51.456;7.622;2023-10-19T10:55:40;8.55;;;3.78;;
15114;SDS011;7658;51.456;7.622;2023-10-19T10:58:07;8.85;;;3.17;;
15114;SDS011;7658;51.456;7.622;2023-10-19T11:00:33;5.30;;;3.42;;
15114;SDS011;7658;51.456;7.622;2023-10-19T11:03:07;8.00;;;3.58;;
15114;SDS011;7658;51.456;7.622;2023-10-19T11:05:35;10.38;;;4.60;;
15114;SDS011;7658;51.456;7.622;2023-10-19T11:08:20;8.20;;;3.38;;
15114;SDS011;7658;51.456;7.622;2023-10-19T11:10:50;8.82;;;4.50;;
15114;SDS011;7658;51.456;7.622;2023-10-19T11:13:22;10.50;;;4.07;;
15114;SDS011;7658;51.456;7.622;2023-10-19T11:18:35;9.35;;;3.65;;
15114;SDS011;7658;51.456;7.622;2023-10-19T11:21:06;9.05;;;4.07;;
15114;SDS011;7658;51.456;7.622;2023-10-19T11:23:35;9.55;;;3.80;;
15114;SDS011;7658;51.456;7.622;2023-10-19T11:26:06;9.45;;;4.47;;
15114;SDS011;7658;51.456;7.622;2023-10-19T11:28:33;11.30;;;4.93;;
15114;SDS011;7658;51.456;7.622;2023-10-19T11:31:10;14.25;;;4.88;;
15114;SDS011;7658;51.456;7.622;2023-10-19T11:33:49;10.80;;;4.18;;
15114;SDS011;7658;51.456;7.622;2023-10-19T11:36:18;12.88;;;4.82;;
15114;SDS011;7658;51.456;7.622;2023-10-19T11:38:46;7.20;;;4.40;;
15114;SDS011;7658;51.456;7.622;2023-10-19T11:41:13;6.80;;;4.25;;
15114;SDS011;7658;51.456;7.622;2023-10-19T11:43:41;11.02;;;4.55;;
15114;SDS011;7658;51.456;7.622;2023-10-19T11:46:10;11.93;;;4.85;;
15114;SDS011;7658;51.456;7.622;2023-10-19T11:48:38;10.60;;;5.20;;
15114;SDS011;7658;51.456;7.622;2023-10-19T11:51:05;11.00;;;5.32;;
15114;SDS011;7658;51.456;7.622;2023-10-19T11:53:33;8.02;;;4.80;;
15114;SDS011;7658;51.456;7.622;2023-10-19T11:56:02;13.52;;;4.85;;
15114;SDS011;7658;51.456;7.622;2023-10-19T11:58:38;7.90;;;4.60;;
15114;SDS011;7658;51.456;7.622;2023-10-19T12:01:07;9.38;;;5.07;;
15114;SDS011;7658;51.456;7.622;2023-10-19T12:03:37;10.75;;;4.82;;
15114;SDS011;7658;51.456;7.622;2023-10-19T12:06:08;9.63;;;4.75;;
15114;SDS011;7658;51.456;7.622;2023-10-19T12:08:36;8.40;;;4.28;;
15114;SDS011;7658;51.456;7.622;2023-10-19T12:11:03;8.55;;;4.60;;
15114;SDS011;7658;51.456;7.622;2023-10-19T12:13:40;8.48;;;3.90;;
15114;SDS011;7658;51.456;7.622;2023-10-19T12:16:11;7.18;;;3.83;;
15114;SDS011;7658;51.456;7.622;2023-10-19T12:18:43;6.85;;;4.07;;
15114;SDS011;7658;51.456;7.622;2023-10-19T12:21:11;12.27;;;4.10;;
15114;SDS011;7658;51.456;7.622;2023-10-19T12:23:41;7.70;;;3.85;;
15114;SDS011;7658;51.456;7.622;2023-10-19T12:26:08;7.18;;;4.03;;
15114;SDS011;7658;51.456;7.622;2023-10-19T12:28:42;8.55;;;3.75;;
15114;SDS011;7658;51.456;7.622;2023-10-19T12:31:11;6.88;;;3.70;;
15114;SDS011;7658;51.456;7.622;2023-10-19T12:33:37;7.30;;;3.75;;
15114;SDS011;7658;51.456;7.622;2023-10-19T12:36:07;8.18;;;3.63;;
15114;SDS011;7658;51.456;7.622;2023-10-19T12:38:51;6.32;;;3.58;;
15114;SDS011;7658;51.456;7.622;2023-10-19T12:41:21;8.45;;;3.47;;
15114;SDS011;7658;51.456;7.622;2023-10-19T12:43:47;6.18;;;3.40;;
15114;SDS011;7658;51.456;7.622;2023-10-19T12:46:17;10.00;;;3.65;;
15114;SDS011;7658;51.456;7.622;2023-10-19T12:48:44;6.57;;;3.25;;
15114;SDS011;7658;51.456;7.622;2023-10-19T12:51:14;7.35;;;3.03;;
15114;SDS011;7658;51.456;7.622;2023-10-19T12:53:43;4.75;;;3.00;;
15114;SDS011;7658;51.456;7.622;2023-10-19T12:56:11;7.65;;;3.20;;
15114;SDS011;7658;51.456;7.622;2023-10-19T12:58:37;5.53;;;3.00;;
15114;SDS011;7658;51.456;7.622;2023-10-19T13:01:03;5.65;;;2.70;;
15114;SDS011;7658;51.456;7.622;2023-10-19T13:03:30;6.15;;;2.80;;
15114;SDS011;7658;51.456;7.622;2023-10-19T13:05:58;7.10;;;2.88;;
15114;SDS011;7658;51.456;7.622;2023-10-19T13:08:25;7.40;;;3.45;;
15114;SDS011;7658;51.456;7.622;2023-10-19T13:10:55;5.28;;;2.65;;
15114;SDS011;7658;51.456;7.622;2023-10-19T13:13:21;9.07;;;3.38;;
15114;SDS011;7658;51.456;7.622;2023-10-19T13:15:50;6.53;;;3.00;;
15114;SDS011;7658;51.456;7.622;2023-10-19T13:18:18;7.10;;;2.80;;
15114;SDS011;7658;51.456;7.622;2023-10-19T13:20:46;6.90;;;2.70;;
15114;SDS011;7658;51.456;7.622;2023-10-19T13:23:14;9.93;;;3.22;;
15114;SDS011;7658;51.456;7.622;2023-10-19T13:25:47;8.07;;;3.42;;
15114;SDS011;7658;51.456;7.622;2023-10-19T13:28:26;7.35;;;2.97;;
15114;SDS011;7658;51.456;7.622;2023-10-19T13:30:54;7.78;;;3.00;;
15114;SDS011;7658;51.456;7.622;2023-10-19T13:33:24;5.25;;;2.90;;
15114;SDS011;7658;51.456;7.622;2023-10-19T13:35:50;6.28;;;3.33;;
15114;SDS011;7658;51.456;7.622;2023-10-19T13:38:18;6.32;;;2.80;;
15114;SDS011;7658;51.456;7.622;2023-10-19T13:40:47;5.15;;;2.80;;
15114;SDS011;7658;51.456;7.622;2023-10-19T13:43:15;3.92;;;2.65;;
15114;SDS011;7658;51.456;7.622;2023-10-19T13:45:46;10.43;;;3.10;;
15114;SDS011;7658;51.456;7.622;2023-10-19T13:48:14;7.35;;;3.17;;
15114;SDS011;7658;51.456;7.622;2023-10-19T13:50:44;9.95;;;2.65;;
15114;SDS011;7658;51.456;7.622;2023-10-19T13:53:17;7.15;;;2.80;;
15114;SDS011;7658;51.456;7.622;2023-10-19T13:55:44;9.95;;;3.00;;
15114;SDS011;7658;51.456;7.622;2023-10-19T13:58:10;7.20;;;3.47;;
15114;SDS011;7658;51.456;7.622;2023-10-19T14:00:37;8.10;;;2.97;;
15114;SDS011;7658;51.456;7.622;2023-10-19T14:03:09;6.70;;;3.40;;
15114;SDS011;7658;51.456;7.622;2023-10-19T14:05:39;8.77;;;3.15;;
15114;SDS011;7658;51.456;7.622;2023-10-19T14:08:12;5.30;;;2.80;;
15114;SDS011;7658;51.456;7.622;2023-10-19T14:10:39;7.93;;;3.10;;
15114;SDS011;7658;51.456;7.622;2023-10-19T14:13:08;10.85;;;3.38;;
15114;SDS011;7658;51.456;7.622;2023-10-19T14:15:36;8.18;;;3.10;;
15114;SDS011;7658;51.456;7.622;2023-10-19T14:18:03;7.32;;;2.92;;
15114;SDS011;7658;51.456;7.622;2023-10-19T14:20:30;8.93;;;3.22;;
15114;SDS011;7658;51.456;7.622;2023-10-19T14:22:59;5.60;;;3.38;;
15114;SDS011;7658;51.456;7.622;2023-10-19T14:25:27;8.27;;;3.03;;
15114;SDS011;7658;51.456;7.622;2023-10-19T14:27:55;6.85;;;3.40;;
15114;SDS011;7658;51.456;7.622;2023-10-19T14:30:28;7.07;;;3.20;;
15114;SDS011;7658;51.456;7.622;2023-10-19T14:32:54;8.48;;;3.58;;
15114;SDS011;7658;51.456;7.622;2023-10-19T14:35:22;6.18;;;3.35;;
15114;SDS011;7658;51.456;7.622;2023-10-19T14:37:52;6.53;;;3.00;;
15114;SDS011;7658;51.456;7.622;2023-10-19T14:40:20;7.53;;;3.40;;
15114;SDS011;7658;51.456;7.622;2023-10-19T14:42:50;5.68;;;2.90;;
15114;SDS011;7658;51.456;7.622;2023-10-19T14:45:21;7.18;;;2.90;;
15114;SDS011;7658;51.456;7.622;2023-10-19T14:47:57;8.23;;;3.35;;
15114;SDS011;7658;51.456;7.622;2023-10-19T14:50:24;7.32;;;3.10;;
15114;SDS011;7658;51.456;7.622;2023-10-19T14:52:52;7.40;;;3.70;;
15114;SDS011;7658;51.456;7.622;2023-10-19T14:55:20;6.82;;;3.20;;
15114;SDS011;7658;51.456;7.622;2023-10-19T14:57:47;5.65;;;2.90;;
15114;SDS011;7658;51.456;7.622;2023-10-19T15:00:16;6.50;;;3.42;;
15114;SDS011;7658;51.456;7.622;2023-10-19T15:03:02;4.53;;;2.92;;
15114;SDS011;7658;51.456;7.622;2023-10-19T15:05:33;8.10;;;3.25;;
15114;SDS011;7658;51.456;7.622;2023-10-19T15:08:04;8.52;;;3.13;;
15114;SDS011;7658;51.456;7.622;2023-10-19T15:10:31;7.43;;;3.15;;
15114;SDS011;7658;51.456;7.622;2023-10-19T15:12:58;6.93;;;3.15;;
15114;SDS011;7658;51.456;7.622;2023-10-19T15:15:40;8.30;;;2.80;;
15114;SDS011;7658;51.456;7.622;2023-10-19T15:18:07;5.03;;;2.92;;
15114;SDS011;7658;51.456;7.622;2023-10-19T15:20:33;6.22;;;3.08;;
15114;SDS011;7658;51.456;7.622;2023-10-19T15:23:00;7.85;;;3.20;;